createdAt,value
2022-08-07T00:00:19.946Z,58.97
2022-08-07T00:01:43.687Z,56.07
2022-08-07T00:02:41.101Z,52.53
2022-08-07T00:03:19.915Z,57.52
2022-08-07T00:04:24.486Z,56.72
2022-08-07T00:05:18.945Z,53.66
2022-08-07T00:06:29.289Z,56.24
2022-08-07T00:07:19.950Z,55.27
2022-08-07T00:08:18.866Z,53.98
2022-08-07T00:09:21.227Z,54.62
2022-08-07T00:10:26.482Z,54.95
2022-08-07T00:11:20.832Z,56.72
2022-08-07T00:12:19.817Z,53.17
2022-08-07T00:13:25.635Z,56.56
2022-08-07T00:14:19.841Z,55.27
2022-08-07T00:15:19.793Z,55.75
2022-08-07T00:16:21.612Z,57.85
2022-08-07T00:17:19.778Z,57.36
2022-08-07T00:18:20.271Z,55.75
2022-08-07T00:19:21.491Z,58.01
2022-08-07T00:20:29.900Z,55.11
2022-08-07T00:21:57.508Z,53.66
2022-08-07T00:22:24.414Z,53.98
2022-08-07T00:23:21.174Z,53.98
2022-08-07T00:24:18.728Z,56.40
2022-08-07T00:25:18.708Z,53.82
2022-08-07T00:26:59.234Z,57.36
2022-08-07T00:27:19.688Z,54.79
2022-08-07T00:28:18.671Z,58.65
2022-08-07T00:29:18.658Z,56.56
2022-08-07T00:30:26.848Z,53.17
2022-08-07T00:31:19.636Z,49.47
2022-08-07T00:32:18.641Z,55.11
2022-08-07T00:33:19.619Z,56.24
2022-08-07T00:34:18.630Z,56.24
2022-08-07T00:35:18.649Z,56.56
2022-08-07T00:36:18.592Z,56.72
2022-08-07T00:37:18.584Z,50.76
2022-08-07T00:38:31.585Z,52.69
2022-08-07T00:39:20.655Z,56.88
2022-08-07T00:40:39.272Z,50.43
2022-08-07T00:41:19.561Z,51.56
2022-08-07T00:42:18.536Z,58.81
2022-08-07T00:44:01.046Z,54.14
2022-08-07T00:44:19.518Z,55.11
2022-08-07T00:45:18.505Z,52.37
2022-08-07T00:46:18.539Z,55.27
2022-08-07T00:48:07.821Z,57.20
2022-08-07T00:48:19.569Z,51.56
2022-08-07T00:50:16.917Z,56.72
2022-08-07T00:50:50.628Z,53.50
2022-08-07T00:51:19.489Z,55.75
2022-08-07T00:52:20.127Z,56.07
2022-08-07T00:53:18.416Z,55.43
2022-08-07T00:54:19.845Z,52.05
2022-08-07T00:55:25.561Z,53.33
2022-08-07T00:56:19.400Z,55.91
2022-08-07T00:57:18.400Z,53.66
2022-08-07T00:58:18.380Z,53.98
2022-08-07T00:59:20.035Z,53.17
2022-08-07T01:00:19.359Z,55.75
2022-08-07T01:01:18.492Z,50.43
2022-08-07T01:02:28.618Z,52.69
2022-08-07T01:03:19.329Z,50.43
2022-08-07T01:04:21.710Z,54.46
2022-08-07T01:05:19.840Z,53.82
2022-08-07T01:06:18.299Z,52.21
2022-08-07T01:07:18.305Z,52.53
2022-08-07T01:08:18.280Z,57.36
2022-08-07T01:10:03.921Z,56.24
2022-08-07T01:10:19.257Z,58.97
2022-08-07T01:12:10.298Z,47.53
2022-08-07T01:12:29.663Z,53.66
2022-08-07T01:13:19.226Z,56.56
2022-08-07T01:14:21.475Z,55.75
2022-08-07T01:15:19.210Z,55.43
2022-08-07T01:16:29.981Z,55.27
2022-08-07T01:17:19.217Z,54.30
2022-08-07T01:18:18.184Z,52.85
2022-08-07T01:19:19.657Z,55.59
2022-08-07T01:20:18.169Z,56.07
2022-08-07T01:21:25.807Z,53.98
2022-08-07T01:22:22.891Z,52.53
2022-08-07T01:23:19.189Z,57.85
2022-08-07T01:24:21.397Z,54.79
2022-08-07T01:25:54.580Z,56.07
2022-08-07T01:26:19.553Z,57.20
2022-08-07T01:27:19.991Z,48.18
2022-08-07T01:28:18.107Z,55.27
2022-08-07T01:29:18.066Z,49.79
2022-08-07T01:30:19.026Z,52.69
2022-08-07T01:31:18.131Z,54.79
2022-08-07T01:32:18.037Z,56.40
2022-08-07T01:33:18.030Z,55.91
2022-08-07T01:34:18.906Z,47.86
2022-08-07T01:35:18.006Z,55.11
2022-08-07T01:36:18.994Z,55.75
2022-08-07T01:37:19.063Z,56.07
2022-08-07T01:38:25.394Z,50.27
2022-08-07T01:39:19.014Z,50.27
2022-08-07T01:40:17.959Z,51.08
2022-08-07T01:41:26.260Z,53.33
2022-08-07T01:42:38.917Z,55.91
2022-08-07T01:43:18.925Z,56.72
2022-08-07T01:44:17.948Z,54.62
2022-08-07T01:45:22.795Z,56.24
2022-08-07T01:46:18.904Z,57.85
2022-08-07T01:48:19.414Z,51.56
2022-08-07T01:48:29.379Z,51.72
2022-08-07T01:49:21.424Z,55.75
2022-08-07T01:50:22.708Z,57.85
2022-08-07T01:52:01.103Z,53.17
2022-08-07T01:52:18.842Z,55.59
2022-08-07T01:53:21.077Z,49.31
2022-08-07T01:54:37.058Z,45.76
2022-08-07T01:55:22.430Z,49.63
2022-08-07T01:56:18.804Z,53.98
2022-08-07T01:57:24.570Z,56.07
2022-08-07T01:58:29.132Z,51.56
2022-08-07T01:59:18.776Z,55.27
2022-08-07T02:00:17.804Z,57.69
2022-08-07T02:01:58.937Z,52.05
2022-08-07T02:02:32.856Z,55.59
2022-08-07T02:03:21.837Z,54.14
2022-08-07T02:04:18.793Z,53.17
2022-08-07T02:05:47.724Z,50.60
2022-08-07T02:06:30.855Z,53.66
2022-08-07T02:07:18.699Z,55.27
2022-08-07T02:08:17.691Z,59.30
2022-08-07T02:09:33.824Z,56.72
2022-08-07T02:10:18.668Z,51.72
2022-08-07T02:11:57.638Z,54.95
2022-08-07T02:12:18.650Z,54.79
2022-08-07T02:13:17.641Z,56.88
2022-08-07T02:14:36.325Z,54.62
2022-08-07T02:15:18.629Z,55.91
2022-08-07T02:16:17.611Z,57.52
2022-08-07T02:17:27.515Z,59.46
2022-08-07T02:18:18.612Z,56.40
2022-08-07T02:20:05.063Z,56.88
2022-08-07T02:20:23.371Z,56.07
2022-08-07T02:21:18.562Z,54.30
2022-08-07T02:22:18.577Z,54.95
2022-08-07T02:23:20.024Z,52.21
2022-08-07T02:24:18.537Z,53.82
2022-08-07T02:25:18.364Z,57.20
2022-08-07T02:26:33.002Z,47.53
2022-08-07T02:27:18.564Z,54.46
2022-08-07T02:28:24.710Z,57.04
2022-08-07T02:29:18.486Z,55.43
2022-08-07T02:30:17.476Z,53.17
2022-08-07T02:31:29.159Z,51.56
2022-08-07T02:32:18.459Z,54.30
2022-08-07T02:33:18.466Z,55.59
2022-08-07T02:34:18.066Z,58.33
2022-08-07T02:35:20.413Z,57.85
2022-08-07T02:36:29.500Z,50.60
2022-08-07T02:37:18.410Z,56.24
2022-08-07T02:38:17.413Z,54.95
2022-08-07T02:39:42.855Z,55.11
2022-08-07T02:40:30.871Z,56.72
2022-08-07T02:41:21.695Z,51.24
2022-08-07T02:42:17.361Z,55.27
2022-08-07T02:43:17.368Z,57.52
2022-08-07T02:44:17.342Z,58.17
2022-08-07T02:45:55.900Z,57.36
2022-08-07T02:46:18.325Z,55.91
2022-08-07T02:47:19.250Z,54.14
2022-08-07T02:48:18.342Z,49.79
2022-08-07T02:49:56.431Z,51.08
2022-08-07T02:50:18.428Z,50.11
2022-08-07T02:51:42.847Z,55.59
2022-08-07T02:52:18.266Z,53.33
2022-08-07T02:53:17.286Z,56.24
2022-08-07T02:54:17.251Z,52.05
2022-08-07T02:55:28.594Z,57.04
2022-08-07T02:56:21.890Z,57.85
2022-08-07T02:57:17.217Z,56.07
2022-08-07T02:58:17.208Z,57.36
2022-08-07T02:59:17.211Z,56.72
2022-08-07T03:00:18.310Z,58.65
2022-08-07T03:01:19.164Z,53.66
2022-08-07T03:02:18.248Z,55.59
2022-08-07T03:03:21.073Z,53.17
2022-08-07T03:04:18.162Z,52.69
2022-08-07T03:05:20.802Z,52.69
2022-08-07T03:06:29.640Z,56.88
2022-08-07T03:07:18.120Z,57.69
2022-08-07T03:08:17.110Z,57.52
2022-08-07T03:09:42.330Z,54.95
2022-08-07T03:10:18.089Z,56.07
2022-08-07T03:11:18.082Z,54.95
2022-08-07T03:12:22.345Z,56.56
2022-08-07T03:13:19.667Z,54.62
2022-08-07T03:14:17.097Z,51.40
2022-08-07T03:15:30.352Z,58.65
2022-08-07T03:16:18.032Z,57.85
2022-08-07T03:17:53.561Z,57.20
2022-08-07T03:18:20.194Z,56.72
2022-08-07T03:19:19.038Z,54.62
2022-08-07T03:20:16.990Z,57.85
2022-08-07T03:21:19.031Z,57.52
2022-08-07T03:22:19.023Z,56.56
2022-08-07T03:23:19.051Z,57.04
2022-08-07T03:24:17.805Z,57.20
2022-08-07T03:25:16.961Z,57.36
2022-08-07T03:26:21.208Z,53.82
2022-08-07T03:27:30.240Z,56.24
2022-08-07T03:28:37.143Z,52.05
2022-08-07T03:29:17.961Z,56.88
2022-08-07T03:30:16.894Z,55.91
2022-08-07T03:31:16.892Z,57.69
2022-08-07T03:32:16.867Z,52.69
2022-08-07T03:33:16.866Z,59.94
2022-08-07T03:34:18.892Z,59.46
2022-08-07T03:35:18.784Z,55.11
2022-08-07T03:36:17.871Z,52.21
2022-08-07T03:37:16.824Z,59.62
2022-08-07T03:38:16.813Z,59.46
2022-08-07T03:39:16.953Z,58.33
2022-08-07T03:40:17.230Z,54.95
2022-08-07T03:41:16.791Z,53.50
2022-08-07T03:42:16.782Z,52.85
2022-08-07T03:43:16.774Z,59.46
2022-08-07T03:44:16.764Z,58.97
2022-08-07T03:45:29.391Z,57.52
2022-08-07T03:46:18.617Z,59.30
2022-08-07T03:47:16.752Z,58.65
2022-08-07T03:48:16.728Z,58.01
2022-08-07T03:49:16.740Z,58.49
2022-08-07T03:50:16.753Z,57.36
2022-08-07T03:51:17.699Z,57.36
2022-08-07T03:52:22.707Z,58.33
2022-08-07T03:53:17.676Z,54.30
2022-08-07T03:54:36.485Z,59.30
2022-08-07T03:55:17.688Z,60.42
2022-08-07T03:56:16.653Z,58.65
2022-08-07T03:58:33.470Z,59.46
2022-08-07T03:59:07.358Z,60.42
2022-08-07T03:59:17.889Z,59.94
2022-08-07T04:00:16.609Z,57.52
2022-08-07T04:01:16.630Z,58.33
2022-08-07T04:02:16.587Z,61.39
2022-08-07T04:03:16.597Z,58.33
2022-08-07T04:04:17.394Z,59.14
2022-08-07T04:05:16.560Z,58.33
2022-08-07T04:06:37.186Z,59.14
2022-08-07T04:07:17.762Z,60.10
2022-08-07T04:08:18.713Z,58.81
2022-08-07T04:09:16.517Z,59.30
2022-08-07T04:10:19.484Z,57.85
2022-08-07T04:12:25.106Z,59.62
2022-08-07T04:12:26.215Z,59.30
2022-08-07T04:13:17.478Z,56.72
2022-08-07T04:14:37.706Z,53.82
2022-08-07T04:15:17.495Z,56.72
2022-08-07T04:16:30.057Z,58.65
2022-08-07T04:17:21.028Z,57.85
2022-08-07T04:18:58.500Z,57.36
2022-08-07T04:19:17.572Z,59.14
2022-08-07T04:20:16.411Z,58.97
2022-08-07T04:21:16.631Z,60.10
2022-08-07T04:22:17.675Z,58.65
2022-08-07T04:23:19.438Z,55.59
2022-08-07T04:24:30.347Z,55.11
2022-08-07T04:25:17.362Z,57.04
2022-08-07T04:26:16.923Z,58.33
2022-08-07T04:27:25.287Z,54.30
2022-08-07T04:28:17.337Z,59.78
2022-08-07T04:29:16.349Z,58.01
2022-08-07T04:30:35.831Z,59.14
2022-08-07T04:31:19.862Z,58.81
2022-08-07T04:32:16.346Z,51.56
2022-08-07T04:33:16.288Z,58.81
2022-08-07T04:34:17.206Z,59.14
2022-08-07T04:35:17.270Z,59.46
2022-08-07T04:36:16.259Z,58.49
2022-08-07T04:37:20.500Z,60.59
2022-08-07T04:38:16.258Z,59.30
2022-08-07T04:39:17.642Z,59.14
2022-08-07T04:40:16.237Z,58.97
2022-08-07T04:41:19.183Z,62.68
2022-08-07T04:42:16.213Z,58.65
2022-08-07T04:43:16.220Z,56.72
2022-08-07T04:44:18.799Z,57.36
2022-08-07T04:45:19.711Z,59.62
2022-08-07T04:46:25.845Z,59.30
2022-08-07T04:47:23.450Z,54.79
2022-08-07T04:48:17.409Z,58.81
2022-08-07T04:49:24.249Z,59.14
2022-08-07T04:50:17.128Z,59.46
2022-08-07T04:51:16.119Z,58.33
2022-08-07T04:52:18.433Z,55.27
2022-08-07T04:53:20.897Z,60.42
2022-08-07T04:54:17.097Z,58.33
2022-08-07T04:58:10.968Z,58.65
2022-08-07T04:58:11.763Z,59.30
2022-08-07T04:58:13.927Z,58.97
2022-08-07T04:58:33.688Z,57.85
2022-08-07T05:00:12.244Z,60.59
2022-08-07T05:00:30.221Z,59.94
2022-08-07T05:01:18.083Z,60.10
2022-08-07T05:02:16.802Z,57.69
2022-08-07T05:03:17.232Z,59.78
2022-08-07T05:04:18.001Z,59.46
2022-08-07T05:05:53.207Z,60.42
2022-08-07T05:06:19.586Z,60.91
2022-08-07T05:07:19.803Z,59.62
2022-08-07T05:08:15.944Z,57.36
2022-08-07T05:09:15.971Z,58.17
2022-08-07T05:10:15.929Z,59.30
2022-08-07T05:11:19.439Z,57.85
2022-08-07T05:12:26.830Z,59.14
2022-08-07T05:14:52.969Z,61.71
2022-08-07T05:14:53.681Z,59.46
2022-08-07T05:15:23.495Z,60.42
2022-08-07T05:16:17.869Z,58.97
2022-08-07T05:17:16.098Z,60.42
2022-08-07T05:18:16.852Z,59.78
2022-08-07T05:19:15.841Z,58.97
2022-08-07T05:20:15.875Z,58.97
2022-08-07T05:21:15.825Z,60.59
2022-08-07T05:22:26.593Z,59.46
2022-08-07T05:23:16.803Z,58.97
2022-08-07T05:24:15.794Z,59.14
2022-08-07T05:25:26.104Z,58.97
2022-08-07T05:26:23.716Z,55.75
2022-08-07T05:28:01.954Z,57.69
2022-08-07T05:28:22.558Z,57.52
2022-08-07T05:29:16.746Z,57.04
2022-08-07T05:30:15.736Z,58.65
2022-08-07T05:31:16.832Z,58.81
2022-08-07T05:32:15.717Z,60.26
2022-08-07T05:33:15.710Z,58.81
2022-08-07T05:34:15.915Z,57.36
2022-08-07T05:35:15.691Z,56.40
2022-08-07T05:36:22.594Z,58.97
2022-08-07T05:37:25.371Z,58.97
2022-08-07T05:39:00.769Z,57.52
2022-08-07T05:40:18.016Z,56.40
2022-08-07T05:40:18.594Z,58.97
2022-08-07T05:41:17.047Z,57.36
2022-08-07T05:42:15.649Z,59.46
2022-08-07T05:43:16.610Z,60.10
2022-08-07T05:44:15.607Z,58.97
2022-08-07T05:45:26.067Z,59.30
2022-08-07T05:46:16.606Z,59.62
2022-08-07T05:47:18.643Z,55.75
2022-08-07T05:48:15.559Z,58.01
2022-08-07T05:49:15.554Z,58.65
2022-08-07T05:50:15.540Z,57.36
2022-08-07T05:51:15.537Z,57.52
2022-08-07T05:52:15.587Z,59.30
2022-08-07T05:54:13.456Z,58.81
2022-08-07T05:54:44.555Z,58.01
2022-08-07T05:55:16.492Z,57.85
2022-08-07T05:56:15.486Z,57.85
2022-08-07T05:57:15.513Z,60.59
2022-08-07T05:58:15.468Z,58.81
2022-08-07T05:59:15.455Z,57.85
2022-08-07T06:00:16.317Z,58.01
2022-08-07T06:01:15.470Z,59.46
2022-08-07T06:02:20.084Z,57.36
2022-08-07T06:03:17.431Z,59.78
2022-08-07T06:04:17.472Z,59.46
2022-08-07T06:05:16.061Z,58.81
2022-08-07T06:06:17.315Z,58.81
2022-08-07T06:07:22.946Z,57.69
2022-08-07T06:08:30.786Z,58.81
2022-08-07T06:09:16.357Z,60.10
2022-08-07T06:10:15.677Z,57.85
2022-08-07T06:11:15.334Z,56.24
2022-08-07T06:12:15.504Z,58.01
2022-08-07T06:13:15.530Z,52.21
2022-08-07T06:14:21.383Z,60.10
2022-08-07T06:15:16.430Z,58.65
2022-08-07T06:16:15.291Z,57.20
2022-08-07T06:17:15.278Z,60.26
2022-08-07T06:18:15.274Z,57.52
2022-08-07T06:19:17.780Z,59.46
2022-08-07T06:20:25.560Z,59.14
2022-08-07T06:22:15.117Z,60.26
2022-08-07T06:22:24.019Z,58.65
2022-08-07T06:23:46.113Z,60.10
2022-08-07T06:24:46.123Z,60.10
2022-08-07T06:25:16.209Z,59.78
2022-08-07T06:26:15.195Z,59.78
2022-08-07T06:27:15.185Z,57.85
2022-08-07T06:28:16.172Z,59.78
2022-08-07T06:29:16.192Z,60.26
2022-08-07T06:30:32.145Z,59.62
2022-08-07T06:31:16.150Z,58.01
2022-08-07T06:32:15.135Z,58.97
2022-08-07T06:33:16.269Z,57.85
2022-08-07T06:34:15.114Z,61.87
2022-08-07T06:35:18.032Z,61.55
2022-08-07T06:36:15.096Z,57.69
2022-08-07T06:37:19.077Z,54.30
2022-08-07T06:38:20.023Z,57.20
2022-08-07T06:40:16.130Z,62.84
2022-08-07T06:40:20.892Z,60.26
2022-08-07T06:41:16.106Z,59.30
2022-08-07T06:42:16.038Z,60.26
2022-08-07T06:43:20.919Z,60.10
2022-08-07T06:44:16.326Z,58.17
2022-08-07T06:45:17.957Z,59.14
2022-08-07T06:46:14.998Z,58.97
2022-08-07T06:47:15.988Z,60.10
2022-08-07T06:48:15.233Z,58.97
2022-08-07T06:49:15.027Z,60.26
2022-08-07T06:50:14.959Z,60.59
2022-08-07T06:51:15.344Z,60.59
2022-08-07T06:52:14.940Z,58.49
2022-08-07T06:53:18.542Z,60.91
2022-08-07T06:55:32.303Z,61.39
2022-08-07T06:55:32.525Z,59.94
2022-08-07T06:56:16.034Z,58.65
2022-08-07T06:57:14.899Z,61.39
2022-08-07T06:58:16.613Z,59.94
2022-08-07T07:00:14.047Z,61.87
2022-08-07T07:00:18.260Z,56.40
2022-08-07T07:01:15.876Z,57.85
2022-08-07T07:02:14.902Z,59.62
2022-08-07T07:03:17.209Z,59.30
2022-08-07T07:04:28.080Z,61.71
2022-08-07T07:06:05.103Z,59.94
2022-08-07T07:06:23.742Z,60.75
2022-08-07T07:07:58.620Z,58.81
2022-08-07T07:08:18.648Z,58.81
2022-08-07T07:09:15.776Z,59.78
2022-08-07T07:10:14.768Z,58.81
2022-08-07T07:12:07.442Z,61.71
2022-08-07T07:12:21.748Z,61.71
2022-08-07T07:13:16.735Z,61.39
2022-08-07T07:14:15.725Z,59.62
2022-08-07T07:15:24.038Z,62.52
2022-08-07T07:16:19.529Z,59.94
2022-08-07T07:17:16.166Z,59.94
2022-08-07T07:18:14.689Z,60.26
2022-08-07T07:19:55.101Z,60.75
2022-08-07T07:20:15.690Z,61.23
2022-08-07T07:21:19.734Z,61.39
2022-08-07T07:22:37.000Z,59.14
2022-08-07T07:24:11.033Z,61.07
2022-08-07T07:24:15.630Z,62.04
2022-08-07T07:26:32.957Z,61.23
2022-08-07T07:26:34.177Z,59.14
2022-08-07T07:27:15.622Z,59.94
2022-08-07T07:28:42.624Z,60.42
2022-08-07T07:29:56.651Z,61.71
2022-08-07T07:30:32.383Z,61.23
2022-08-07T07:31:17.205Z,63.49
2022-08-07T07:32:15.588Z,61.23
2022-08-07T07:33:14.551Z,61.23
2022-08-07T07:34:15.508Z,56.72
2022-08-07T07:35:14.527Z,62.04
2022-08-07T07:36:17.195Z,63.97
2022-08-07T07:37:45.192Z,59.94
2022-08-07T07:38:15.502Z,63.00
2022-08-07T07:39:14.529Z,61.39
2022-08-07T07:40:15.337Z,60.59
2022-08-07T07:41:14.576Z,60.75
2022-08-07T07:42:17.536Z,60.91
2022-08-07T07:43:18.695Z,60.10
2022-08-07T07:44:21.452Z,60.59
2022-08-07T07:45:15.918Z,61.07
2022-08-07T07:46:37.035Z,59.94
2022-08-07T07:47:23.081Z,61.07
2022-08-07T07:48:35.101Z,61.39
2022-08-07T07:50:34.215Z,61.07
2022-08-07T07:50:34.444Z,60.91
2022-08-07T07:51:15.530Z,62.04
2022-08-07T07:52:15.913Z,60.42
2022-08-07T07:53:23.143Z,61.55
2022-08-07T07:54:15.342Z,59.46
2022-08-07T07:55:14.332Z,62.04
2022-08-07T07:56:14.322Z,59.94
2022-08-07T07:57:14.311Z,60.10
2022-08-07T07:58:14.335Z,59.94
2022-08-07T07:59:14.290Z,60.59
2022-08-07T08:00:21.195Z,60.59
2022-08-07T08:02:01.849Z,60.59
2022-08-07T08:02:22.591Z,59.62
2022-08-07T08:03:17.005Z,60.91
2022-08-07T08:04:15.289Z,60.42
2022-08-07T08:05:15.061Z,62.04
2022-08-07T08:06:14.221Z,61.23
2022-08-07T08:07:14.208Z,65.26
2022-08-07T08:08:33.989Z,61.39
2022-08-07T08:09:15.186Z,60.59
2022-08-07T08:10:14.817Z,61.07
2022-08-07T08:11:18.212Z,59.46
2022-08-07T08:12:31.177Z,61.55
2022-08-07T08:13:16.195Z,58.97
2022-08-07T08:14:14.139Z,60.26
2022-08-07T08:15:14.145Z,62.04
2022-08-07T08:16:14.119Z,60.91
2022-08-07T08:17:57.097Z,60.10
2022-08-07T08:18:17.814Z,59.46
2022-08-07T08:20:15.982Z,59.94
2022-08-07T08:20:17.523Z,60.91
2022-08-07T08:21:15.074Z,63.65
2022-08-07T08:22:14.067Z,59.30
2022-08-07T08:23:14.423Z,62.20
2022-08-07T08:24:36.580Z,58.97
2022-08-07T08:25:24.599Z,62.20
2022-08-07T08:26:15.028Z,63.16
2022-08-07T08:27:14.020Z,62.84
2022-08-07T08:28:16.947Z,63.81
2022-08-07T08:29:15.015Z,62.52
2022-08-07T08:30:14.398Z,61.55
2022-08-07T08:31:16.237Z,60.42
2022-08-07T08:32:18.436Z,60.10
2022-08-07T08:33:15.240Z,62.04
2022-08-07T08:34:19.046Z,60.59
2022-08-07T08:35:14.969Z,62.04
2022-08-07T08:36:13.933Z,61.39
2022-08-07T08:37:59.734Z,61.55
2022-08-07T08:38:14.950Z,63.97
2022-08-07T08:39:15.324Z,62.04
2022-08-07T08:40:16.326Z,61.55
2022-08-07T08:41:14.886Z,65.10
2022-08-07T08:42:13.878Z,62.68
2022-08-07T08:43:13.885Z,60.75
2022-08-07T08:44:13.896Z,60.91
2022-08-07T08:45:13.943Z,60.91
2022-08-07T08:46:13.840Z,60.42
2022-08-07T08:47:13.831Z,62.84
2022-08-07T08:48:13.819Z,63.00
2022-08-07T08:49:13.846Z,59.46
2022-08-07T08:50:17.547Z,59.14
2022-08-07T08:51:26.063Z,60.26
2022-08-07T08:52:16.656Z,59.78
2022-08-07T08:53:14.770Z,60.42
2022-08-07T08:54:13.765Z,61.07
2022-08-07T08:55:21.090Z,62.68
2022-08-07T08:56:16.849Z,64.45
2022-08-07T08:57:13.738Z,61.23
2022-08-07T08:58:20.271Z,61.55
2022-08-07T08:59:16.448Z,62.20
2022-08-07T09:00:13.720Z,60.10
2022-08-07T09:01:15.971Z,63.16
2022-08-07T09:02:14.750Z,62.68
2022-08-07T09:03:13.674Z,63.81
2022-08-07T09:04:13.676Z,61.55
2022-08-07T09:05:14.724Z,62.68
2022-08-07T09:06:13.648Z,63.97
2022-08-07T09:07:13.651Z,62.20
2022-08-07T09:08:17.836Z,60.75
2022-08-07T09:09:23.614Z,62.84
2022-08-07T09:10:14.657Z,61.55
2022-08-07T09:11:14.107Z,59.46
2022-08-07T09:12:30.326Z,61.71
2022-08-07T09:13:14.819Z,61.07
2022-08-07T09:14:13.569Z,61.39
2022-08-07T09:16:20.466Z,63.00
2022-08-07T09:16:21.901Z,63.16
2022-08-07T09:17:14.543Z,62.04
2022-08-07T09:18:15.725Z,61.71
2022-08-07T09:19:51.133Z,62.04
2022-08-07T09:20:35.703Z,63.65
2022-08-07T09:21:34.249Z,61.07
2022-08-07T09:24:28.944Z,61.87
2022-08-07T09:24:54.171Z,64.13
2022-08-07T09:24:54.721Z,62.36
2022-08-07T09:25:17.427Z,60.42
2022-08-07T09:26:13.479Z,60.91
2022-08-07T09:27:13.669Z,61.71
2022-08-07T09:30:04.032Z,63.49
2022-08-07T09:30:05.169Z,61.71
2022-08-07T09:30:14.421Z,60.42
2022-08-07T09:31:15.468Z,61.07
2022-08-07T09:32:17.305Z,61.87
2022-08-07T09:33:24.160Z,62.68
2022-08-07T09:34:14.376Z,63.33
2022-08-07T09:36:04.017Z,62.20
2022-08-07T09:36:14.374Z,62.84
2022-08-07T09:37:13.341Z,60.59
2022-08-07T09:38:13.335Z,62.36
2022-08-07T09:39:27.501Z,62.04
2022-08-07T09:40:14.393Z,64.29
2022-08-07T09:41:13.320Z,61.07
2022-08-07T09:42:17.180Z,62.36
2022-08-07T09:43:14.584Z,62.20
2022-08-07T09:44:29.998Z,60.91
2022-08-07T09:47:50.261Z,61.55
2022-08-07T09:47:52.543Z,60.10
2022-08-07T09:47:55.246Z,61.55
2022-08-07T09:48:14.550Z,59.46
2022-08-07T09:50:01.017Z,60.42
2022-08-07T09:50:18.460Z,58.65
2022-08-07T09:51:14.782Z,61.39
2022-08-07T09:52:33.470Z,62.84
2022-08-07T09:53:14.183Z,61.71
2022-08-07T09:54:16.406Z,64.29
2022-08-07T09:55:17.350Z,59.94
2022-08-07T09:56:14.193Z,62.04
2022-08-07T09:57:14.154Z,59.94
2022-08-07T09:58:13.360Z,58.97
2022-08-07T09:59:14.511Z,62.20
2022-08-07T10:00:14.619Z,61.23
2022-08-07T10:01:14.878Z,60.59
2022-08-07T10:02:14.111Z,61.23
2022-08-07T10:04:05.879Z,59.30
2022-08-07T10:04:15.880Z,62.84
2022-08-07T10:05:13.882Z,62.20
2022-08-07T10:06:17.573Z,63.49
2022-08-07T10:07:24.590Z,61.87
2022-08-07T10:08:14.041Z,62.20
2022-08-07T10:09:15.223Z,61.07
2022-08-07T10:10:21.938Z,60.26
2022-08-07T10:11:59.831Z,61.23
2022-08-07T10:12:21.556Z,58.97
2022-08-07T10:13:15.919Z,59.62
2022-08-07T10:14:13.987Z,60.91
2022-08-07T10:15:15.284Z,60.42
2022-08-07T10:16:12.960Z,61.39
2022-08-07T10:17:14.448Z,61.55
2022-08-07T10:18:13.956Z,60.10
2022-08-07T10:19:45.495Z,60.75
2022-08-07T10:20:13.218Z,61.39
2022-08-07T10:21:19.720Z,62.20
2022-08-07T10:22:16.925Z,60.10
2022-08-07T10:23:12.897Z,63.81
2022-08-07T10:24:17.102Z,60.42
2022-08-07T10:25:13.875Z,63.16
2022-08-07T10:26:12.868Z,63.49
2022-08-07T10:27:12.898Z,64.29
2022-08-07T10:28:12.849Z,64.94
2022-08-07T10:29:12.840Z,62.36
2022-08-07T10:30:13.043Z,62.84
2022-08-07T10:31:12.815Z,64.13
2022-08-07T10:32:16.494Z,64.61
2022-08-07T10:33:15.087Z,62.36
2022-08-07T10:34:15.266Z,62.52
2022-08-07T10:35:14.903Z,64.29
2022-08-07T10:36:12.790Z,64.45
2022-08-07T10:37:12.889Z,63.16
2022-08-07T10:38:35.261Z,65.58
2022-08-07T10:39:13.760Z,63.16
2022-08-07T10:40:12.818Z,64.13
2022-08-07T10:41:12.722Z,61.71
2022-08-07T10:42:21.030Z,60.91
2022-08-07T10:43:13.712Z,63.81
2022-08-07T10:44:13.689Z,62.52
2022-08-07T10:45:12.730Z,61.23
2022-08-07T10:46:12.668Z,62.20
2022-08-07T10:47:14.253Z,61.07
2022-08-07T10:48:12.665Z,60.75
2022-08-07T10:49:12.639Z,60.59
2022-08-07T10:50:12.727Z,59.78
2022-08-07T10:51:16.793Z,58.65
2022-08-07T10:52:14.082Z,61.55
2022-08-07T10:53:12.619Z,61.07
2022-08-07T10:54:13.594Z,60.26
2022-08-07T10:55:26.961Z,61.07
2022-08-07T10:56:20.842Z,60.26
2022-08-07T10:57:13.567Z,62.04
2022-08-07T10:58:12.613Z,61.55
2022-08-07T10:59:13.631Z,61.07
2022-08-07T11:00:39.593Z,62.36
2022-08-07T11:01:15.048Z,62.52
2022-08-07T11:02:32.812Z,60.42
2022-08-07T11:03:13.640Z,59.78
2022-08-07T11:04:31.336Z,60.42
2022-08-07T11:05:14.495Z,62.20
2022-08-07T11:06:18.202Z,60.10
2022-08-07T11:07:14.953Z,57.20
2022-08-07T11:08:13.604Z,60.26
2022-08-07T11:09:12.460Z,60.10
2022-08-07T11:10:13.555Z,58.81
2022-08-07T11:11:12.440Z,60.42
2022-08-07T11:12:12.428Z,60.75
2022-08-07T11:13:16.797Z,62.84
2022-08-07T11:14:43.717Z,63.33
2022-08-07T11:15:17.499Z,61.39
2022-08-07T11:16:13.395Z,65.10
2022-08-07T11:17:13.386Z,64.13
2022-08-07T11:18:13.404Z,63.97
2022-08-07T11:19:12.362Z,64.45
2022-08-07T11:20:12.361Z,60.59
2022-08-07T11:21:12.346Z,61.39
2022-08-07T11:22:26.678Z,62.68
2022-08-07T11:23:13.329Z,61.55
2022-08-07T11:24:13.339Z,60.26
2022-08-07T11:25:12.313Z,60.75
2022-08-07T11:26:13.111Z,62.36
2022-08-07T11:27:13.522Z,59.78
2022-08-07T11:28:15.608Z,60.10
2022-08-07T11:29:13.195Z,62.68
2022-08-07T11:30:18.269Z,59.62
2022-08-07T11:31:13.275Z,61.07
2022-08-07T11:32:12.249Z,63.97
2022-08-07T11:33:14.139Z,61.07
2022-08-07T11:34:12.275Z,62.04
2022-08-07T11:35:12.230Z,63.00
2022-08-07T11:36:12.213Z,61.23
2022-08-07T11:37:12.206Z,61.07
2022-08-07T11:38:17.208Z,64.61
2022-08-07T11:39:14.527Z,62.20
2022-08-07T11:40:12.217Z,60.91
2022-08-07T11:41:18.298Z,61.07
2022-08-07T11:42:18.803Z,59.94
2022-08-07T11:43:15.505Z,61.07
2022-08-07T11:44:14.304Z,59.46
2022-08-07T11:45:13.130Z,59.14
2022-08-07T11:46:12.137Z,60.10
2022-08-07T11:47:12.136Z,58.33
2022-08-07T11:48:18.068Z,60.75
2022-08-07T11:49:50.750Z,61.23
2022-08-07T11:50:32.225Z,61.39
2022-08-07T11:51:44.476Z,62.68
2022-08-07T11:52:13.064Z,61.23
2022-08-07T11:53:12.051Z,59.78
2022-08-07T11:54:12.082Z,58.65
2022-08-07T11:55:18.698Z,58.97
2022-08-07T11:56:27.102Z,58.49
2022-08-07T11:57:14.272Z,58.49
2022-08-07T11:58:13.233Z,59.46
2022-08-07T12:00:07.623Z,59.30
2022-08-07T12:00:18.989Z,61.07
2022-08-07T12:01:13.975Z,59.62
2022-08-07T12:02:20.916Z,60.10
2022-08-07T12:03:45.406Z,59.62
2022-08-07T12:04:12.969Z,60.10
2022-08-07T12:05:15.425Z,59.46
2022-08-07T12:06:37.878Z,59.46
2022-08-07T12:07:22.071Z,58.81
2022-08-07T12:08:25.984Z,57.85
2022-08-07T12:09:16.219Z,59.78
2022-08-07T12:10:12.911Z,57.69
2022-08-07T12:11:21.488Z,58.49
2022-08-07T12:12:12.877Z,58.65
2022-08-07T12:13:17.009Z,57.69
2022-08-07T12:14:12.854Z,57.52
2022-08-07T12:15:35.412Z,57.85
2022-08-07T12:16:12.837Z,60.10
2022-08-07T12:17:19.988Z,58.81
2022-08-07T12:18:12.889Z,58.33
2022-08-07T12:19:11.810Z,59.62
2022-08-07T12:20:30.380Z,61.07
2022-08-07T12:21:14.979Z,61.07
2022-08-07T12:22:38.590Z,59.94
2022-08-07T12:23:14.428Z,61.23
2022-08-07T12:24:37.012Z,62.52
2022-08-07T12:26:00.399Z,61.39
2022-08-07T12:26:29.012Z,62.52
2022-08-07T12:27:14.982Z,62.68
2022-08-07T12:28:11.934Z,60.75
2022-08-07T12:29:11.717Z,62.20
2022-08-07T12:30:11.830Z,62.36
2022-08-07T12:31:11.700Z,61.07
2022-08-07T12:32:13.168Z,60.59
2022-08-07T12:33:23.158Z,60.10
2022-08-07T12:34:12.672Z,60.10
2022-08-07T12:35:11.936Z,59.46
2022-08-07T12:36:11.646Z,62.52
2022-08-07T12:37:22.902Z,61.55
2022-08-07T12:38:29.285Z,62.68
2022-08-07T12:39:44.009Z,62.52
2022-08-07T12:40:36.401Z,61.07
2022-08-07T12:41:13.816Z,58.01
2022-08-07T12:42:13.081Z,60.26
2022-08-07T12:43:11.586Z,60.91
2022-08-07T12:44:17.063Z,61.07
2022-08-07T12:45:13.852Z,59.78
2022-08-07T12:46:11.557Z,60.10
2022-08-07T12:47:11.547Z,60.10
2022-08-07T12:48:28.011Z,59.46
2022-08-07T12:49:25.748Z,60.75
2022-08-07T12:50:39.147Z,61.39
2022-08-07T12:51:17.570Z,60.42
2022-08-07T12:52:13.631Z,59.94